Wind from 292 at 1 knots

Air temperature 10.6° C
Dewpoint 8.0° C

Last reported at 2014-Apr-18 02:44 UTC.
Time now 2014-Apr-18 03:14 UTC

Location: N 40°30' E 022°53'.
View on Google Maps.

See reports from other nearby stations

Tides Stations Pressure Air Temp Water Temp Dewpoint Dewpoint depression Visibility Wind Speed Wind Dir Waves Ship positions

  
sailing weather and tide predictions

SV2HRT-2 Agia Triada GR weather

date/time (UTC)wind fromknots sea level pressurealtimeterstation pressurevisibilityair tempwater tempwave heightnotes
2014-Apr-18 02:44 292 1 10.6
2014-Apr-18 02:29 329 10.6
2014-Apr-18 02:14 292 10.6
2014-Apr-18 01:59 292 1 gusting 1 11.1
2014-Apr-18 01:44 292 2 gusting 2 11.1
2014-Apr-18 01:29 292 4 gusting 2 11.1
2014-Apr-18 01:14 292 4 gusting 2 11.1
2014-Apr-18 00:59 292 4 gusting 2 11.1
2014-Apr-18 00:44 292 2 gusting 4 11.1
2014-Apr-18 00:29 292 2 gusting 2 11.1
2014-Apr-18 00:14 292 5 gusting 2 11.1
2014-Apr-17 23:59 292 6 gusting 5 11.1
2014-Apr-17 23:44 292 5 gusting 10 11.1
2014-Apr-17 23:29 292 0 gusting 0 12.2
2014-Apr-17 23:14 292 2 12.2
2014-Apr-17 22:59 12.2
2014-Apr-17 22:44 12.2
2014-Apr-17 22:29 12.2
2014-Apr-17 22:14 12.2
2014-Apr-17 21:59 292 12.8
2014-Apr-17 21:44 294 8 gusting 8 12.8
2014-Apr-17 21:29 294 8 gusting 8 12.8
2014-Apr-17 21:14 294 8 gusting 8 12.8
2014-Apr-17 20:59 294 8 gusting 8 12.8
2014-Apr-17 20:44 294 8 gusting 8 12.8
2014-Apr-17 20:29 292 2 gusting 6 12.8
2014-Apr-17 20:14 292 8 gusting 8 13.3
2014-Apr-17 19:59 292 6 gusting 6 13.3
2014-Apr-17 19:44 13.3
2014-Apr-17 19:29 13.9
2014-Apr-17 19:14 292 4 gusting 2 13.9
2014-Apr-17 18:59 057 0 gusting 4 13.9
2014-Apr-17 18:44 090 1 13.9
2014-Apr-17 18:29 090 13.9
2014-Apr-17 18:14 090 0 14.4
2014-Apr-17 17:59 292 2 gusting 1 14.4
2014-Apr-17 17:44 14.4
2014-Apr-17 17:29 292 4 gusting 6 14.4
2014-Apr-17 17:14 14.4
2014-Apr-17 16:59 292 4 gusting 2 15.0
2014-Apr-17 16:44 15.0
2014-Apr-17 16:29 292 2 gusting 2 15.0
2014-Apr-17 16:14 292 1 15.6
2014-Apr-17 15:59 292 15.6
2014-Apr-17 15:55 292 15.6
2014-Apr-17 15:49 292 4 gusting 4 15.6
2014-Apr-17 15:33 292 4 gusting 4 16.1
2014-Apr-17 15:18 15.6
2014-Apr-17 15:03 15.6
2014-Apr-17 15:00 350 15.6
2014-Apr-17 14:49 090 0 gusting 0 15.6
2014-Apr-17 14:34 022 5 gusting 5 15.0
2014-Apr-17 14:19 022 1 gusting 1 15.6
2014-Apr-17 14:04 15.6
2014-Apr-17 13:49 046 15.6
2014-Apr-17 13:34 292 1 gusting 1 15.6
2014-Apr-17 13:06 292 1 gusting 1 15.6
2014-Apr-17 13:02 292 1 gusting 1 15.6
2014-Apr-17 12:51 356 2 gusting 2 15.6
2014-Apr-17 12:36 292 1 15.6
2014-Apr-17 12:21 292 2 gusting 2 16.1
2014-Apr-17 12:06 292 2 gusting 2 16.1
2014-Apr-17 11:51 292 2 gusting 2 16.1
2014-Apr-17 11:36 15.6
2014-Apr-17 11:21 292 4 gusting 1 15.6
2014-Apr-17 11:06 292 2 gusting 2 15.6
2014-Apr-17 10:51 292 0 gusting 2 15.6
2014-Apr-17 10:36 15.0
2014-Apr-17 10:21 292 5 gusting 5 15.0
2014-Apr-17 10:06 14.4
2014-Apr-17 09:51 292 4 gusting 4 13.9
2014-Apr-17 09:36 292 2 gusting 2 13.9
2014-Apr-17 09:21 292 2 gusting 2 13.3
2014-Apr-17 09:06 292 2 gusting 2 13.3
2014-Apr-17 08:51 292 1 gusting 6 12.8
2014-Apr-17 08:36 292 12.2
2014-Apr-17 08:21 11.7
2014-Apr-17 08:06 292 6 gusting 6 11.7
2014-Apr-17 07:51 11.1
2014-Apr-17 07:36 11.1
2014-Apr-17 07:21 292 1 gusting 2 10.6
2014-Apr-17 07:06 292 1 gusting 1 10.6
2014-Apr-17 06:51 292 2 gusting 2 10.6
2014-Apr-17 06:36 292 10 gusting 10 10.6
2014-Apr-17 06:21 294 4 gusting 4 10.0
2014-Apr-17 06:06 292 5 gusting 5 10.0
2014-Apr-17 05:51 10.6
2014-Apr-17 05:36 292 5 gusting 1 10.6
2014-Apr-17 05:21 9.4
2014-Apr-17 05:06 9.4
2014-Apr-17 04:51 292 2 gusting 2 8.9
2014-Apr-17 04:36 292 4 gusting 4 8.9
2014-Apr-17 04:21 8.9
2014-Apr-17 04:06 292 2 gusting 2 8.9
2014-Apr-17 03:51 292 2 gusting 2 8.9
2014-Apr-17 03:36 292 1 gusting 1 9.4
2014-Apr-17 03:21 292 4 gusting 4 9.4
2014-Apr-17 03:06 292 5 gusting 4 9.4
2014-Apr-17 02:51 292 6 gusting 6 9.4
2014-Apr-17 02:36 292 6 gusting 6 9.4
2014-Apr-17 02:21 292 4 gusting 2 9.4
2014-Apr-17 02:06 9.4
2014-Apr-17 01:51 10.0
2014-Apr-17 01:36 294 37 gusting 37 10.0
2014-Apr-17 01:22 292 4 gusting 4 10.0
2014-Apr-17 01:06 292 2 gusting 6 10.0
2014-Apr-17 00:51 292 1 gusting 1 9.4
2014-Apr-17 00:36 9.4
2014-Apr-17 00:21 292 4 gusting 7 10.0
2014-Apr-17 00:06 292 1 gusting 2 10.0
2014-Apr-16 23:51 292 13 gusting 5 10.0
2014-Apr-16 23:36 292 10.0
2014-Apr-16 23:21 292 0 10.0
2014-Apr-16 23:06 292 0 gusting 1 10.0
2014-Apr-16 22:51 292 5 gusting 22 10.6
2014-Apr-16 22:36 292 8 gusting 0 10.6
2014-Apr-16 22:21 292 6 gusting 5 10.6
2014-Apr-16 22:06 292 0 gusting 1 10.6
2014-Apr-16 21:51 292 0 gusting 0 10.6
2014-Apr-16 21:36 292 0 gusting 0 10.6
2014-Apr-16 21:21 292 2 gusting 2 10.6
2014-Apr-16 21:06 292 1 gusting 4 10.6
2014-Apr-16 20:51 292 1 gusting 4 10.6
2014-Apr-16 20:36 292 6 gusting 6 10.6
2014-Apr-16 20:21 292 10 gusting 10 10.6
2014-Apr-16 20:06 292 10 gusting 10 10.6
2014-Apr-16 19:51 292 0 11.1
2014-Apr-16 19:36 292 2 gusting 7 11.1
2014-Apr-16 19:21 292 8 gusting 11 11.1
2014-Apr-16 19:06 292 5 gusting 5 11.1
2014-Apr-16 18:51 292 1 gusting 1 11.1
2014-Apr-16 18:36 022 6 gusting 6 11.1
2014-Apr-16 18:21 292 6 gusting 6 11.1
2014-Apr-16 18:06 293 8 gusting 10 11.7
2014-Apr-16 17:51 292 5 gusting 2 11.7
2014-Apr-16 17:36 292 5 gusting 2 11.7
2014-Apr-16 17:21 294 2 gusting 2 12.2
2014-Apr-16 17:06 292 2 gusting 2 12.8
2014-Apr-16 16:51 292 2 gusting 2 12.8
2014-Apr-16 16:36 292 5 gusting 5 12.8
2014-Apr-16 16:21 292 2 gusting 2 12.8
2014-Apr-16 16:06 292 6 gusting 8 12.8
2014-Apr-16 15:51 292 4 gusting 5 13.3
2014-Apr-16 15:36 294 2 gusting 2 13.3
2014-Apr-16 15:21 292 2 gusting 2 12.8
2014-Apr-16 15:06 292 6 gusting 2 12.8
2014-Apr-16 14:51 292 5 gusting 5 13.3
2014-Apr-16 14:36 292 5 gusting 5 13.3
2014-Apr-16 14:21 001 2 gusting 2 12.2
2014-Apr-16 14:06 001 2 gusting 2 12.2
2014-Apr-16 13:51 001 2 gusting 2 12.2
2014-Apr-16 13:36 001 2 gusting 2 11.7
2014-Apr-16 13:21 001 2 gusting 2 11.1
2014-Apr-16 13:06 001 2 gusting 2 11.1
2014-Apr-16 12:51 292 4 gusting 2 11.1
2014-Apr-16 12:36 292 4 gusting 2 11.1
2014-Apr-16 12:21 292 6 gusting 6 11.1
2014-Apr-16 12:06 292 11 gusting 8 11.7
2014-Apr-16 11:51 292 12 gusting 12 11.7
2014-Apr-16 11:36 292 1 gusting 2 11.7
2014-Apr-16 11:21 292 1 gusting 2 11.7
2014-Apr-16 11:06 11.7
2014-Apr-16 10:51 292 5 gusting 5 11.1
2014-Apr-16 10:36 11.1
2014-Apr-16 10:21 11.1
2014-Apr-16 10:06 292 4 gusting 2 11.1
2014-Apr-16 10:05 292 5 gusting 5 11.1
2014-Apr-16 09:55 292 4 gusting 6 11.7
2014-Apr-16 09:49 292 6 gusting 5 11.7
2014-Apr-16 09:40 292 8 gusting 8 11.7
2014-Apr-16 09:34 292 8 gusting 8 11.7
2014-Apr-16 09:25 302 6 gusting 8 12.2
2014-Apr-16 09:19 292 4 gusting 4 12.8
2014-Apr-16 09:10 292 4 gusting 4 12.8
2014-Apr-16 09:04 292 6 gusting 7 13.3
2014-Apr-16 08:55 292 6 gusting 6 13.3
2014-Apr-16 08:49 292 6 gusting 8 13.9
2014-Apr-16 08:40 292 6 gusting 8 13.9
2014-Apr-16 08:34 13.9
2014-Apr-16 08:25 13.9
2014-Apr-16 08:19 13.9
2014-Apr-16 08:10 292 4 gusting 4 13.9
2014-Apr-16 08:04 292 4 gusting 4 13.9
2014-Apr-16 07:55 292 6 gusting 6 13.9
2014-Apr-16 07:49 292 6 gusting 6 13.9
2014-Apr-16 07:40 270 13.3
2014-Apr-16 07:34 270 13.3
2014-Apr-16 07:25 292 6 gusting 10 13.3
2014-Apr-16 07:19 292 6 13.3
2014-Apr-16 07:10 292 6 13.3
2014-Apr-16 07:04 292 2 gusting 2 13.3
2014-Apr-16 06:56 292 6 gusting 7 12.8
2014-Apr-16 06:49 12.8
2014-Apr-16 06:41 294 1 gusting 1 12.8
2014-Apr-16 06:34 292 1 gusting 1 12.8
2014-Apr-16 06:26 292 12.8
2014-Apr-16 06:19 292 4 gusting 4 12.8
2014-Apr-16 06:11 292 4 gusting 2 12.8
2014-Apr-16 06:04 292 4 gusting 2 12.8
2014-Apr-16 05:55 292 4 gusting 5 12.8
2014-Apr-16 05:49 292 4 gusting 5 12.8
2014-Apr-16 05:41 292 4 gusting 5 12.2
2014-Apr-16 05:34 292 4 gusting 5 12.2
2014-Apr-16 05:25 292 4 gusting 4 12.2
2014-Apr-16 05:19 294 1 gusting 1 12.2
2014-Apr-16 05:10 292 7 gusting 7 12.2
2014-Apr-16 05:04 292 8 gusting 7 12.2
2014-Apr-16 04:56 292 12.2
2014-Apr-16 04:49 292 5 gusting 5 12.2
2014-Apr-16 04:41 292 5 gusting 5 12.2
2014-Apr-16 04:34 292 5 gusting 5 12.8
2014-Apr-16 04:25 292 5 gusting 5 12.8
2014-Apr-16 04:10 292 4 gusting 4 12.8
2014-Apr-16 04:04 292 1 gusting 5 12.8
2014-Apr-16 03:55 292 1 gusting 1 12.8
2014-Apr-16 03:49 12.8
2014-Apr-16 03:40 12.8
2014-Apr-16 03:34 292 2 gusting 8 12.8
2014-Apr-16 03:25 12.8
2014-Apr-16 03:19 12.8
2014-Apr-16 03:10 022 2 12.8
2014-Apr-16 03:04 292 1 13.3